Time;durP1;ratioP1;P1;durP2;ratioP2;P2;SDS_P1;SDS_P2;PMS_P1;PMS_P2;Temp;Humidity;BMP_temperature;BMP_pressure;BME280_temperature;BME280_humidity;BME280_pressure;Samples;Min_cycle;Max_cycle;Signal;HPM_P1;HPM_P2
2022/02/24 00:02:37;;;;;;;84.97;39.45;;;;;;;-1.02;68.67;101108.81;1922467;91;27704;-64
2022/02/24 00:05:39;;;;;;;91.05;40.40;;;;;;;-1.05;68.70;101109.22;1927279;92;29857;-63
2022/02/24 00:08:41;;;;;;;96.40;41.18;;;;;;;-1.06;69.08;101108.32;1909495;92;31241;-63
2022/02/24 00:11:43;;;;;;;98.17;42.40;;;;;;;-1.06;69.08;101104.37;1904322;93;33055;-64
2022/02/24 00:14:45;;;;;;;100.30;42.38;;;;;;;-1.08;69.23;101103.51;1900601;93;30396;-64
2022/02/24 00:17:47;;;;;;;97.70;39.95;;;;;;;-1.09;69.18;101105.69;1904478;93;27742;-63
2022/02/24 00:20:49;;;;;;;88.22;39.05;;;;;;;-1.10;69.30;101100.84;1904136;93;29013;-63
2022/02/24 00:23:52;;;;;;;102.53;39.45;;;;;;;-1.09;69.46;101099.11;1900672;93;32279;-62
2022/02/24 00:26:55;;;;;;;101.92;41.58;;;;;;;-1.10;69.57;101095.58;1937304;91;34126;-62
2022/02/24 00:29:58;;;;;;;102.53;43.33;;;;;;;-1.13;69.44;101096.86;1937066;91;29439;-63
2022/02/24 00:32:59;;;;;;;98.03;41.15;;;;;;;-1.15;69.55;101089.38;1904422;92;27751;-62
2022/02/24 00:36:01;;;;;;;100.53;42.55;;;;;;;-1.16;69.68;101092.91;1874019;95;29612;-63
2022/02/24 00:39:04;;;;;;;107.75;47.98;;;;;;;-1.16;69.61;101092.91;1924564;92;31417;-62
2022/02/24 00:42:06;;;;;;;100.65;45.28;;;;;;;-1.18;69.71;101084.11;1921065;92;33338;-64
2022/02/24 00:45:10;;;;;;;105.37;43.78;;;;;;;-1.19;69.76;101087.60;1927277;92;29319;-62
2022/02/24 00:48:11;;;;;;;101.20;44.58;;;;;;;-1.20;69.66;101085.84;1927413;92;27799;-63
2022/02/24 00:51:13;;;;;;;119.47;49.88;;;;;;;-1.24;69.69;101076.14;1928704;92;29304;-62
2022/02/24 00:54:15;;;;;;;134.20;51.73;;;;;;;-1.26;69.82;101075.23;1929071;91;32495;-63
2022/02/24 00:57:17;;;;;;;121.02;51.15;;;;;;;-1.29;69.85;101073.47;1928734;92;33453;-64
2022/02/24 01:00:20;;;;;;;122.33;51.68;;;;;;;-1.30;69.96;101070.39;1928972;91;29337;-63
2022/02/24 01:03:21;;;;;;;127.00;51.50;;;;;;;-1.32;70.03;101069.48;1928701;92;27781;-63
2022/02/24 01:06:23;;;;;;;131.12;53.95;;;;;;;-1.34;70.01;101068.58;1929259;91;29651;-63
2022/02/24 01:09:25;;;;;;;127.65;52.10;;;;;;;-1.35;69.98;101061.55;1900803;93;31764;-64
2022/02/24 01:12:27;;;;;;;122.55;52.90;;;;;;;-1.38;70.04;101057.16;1901055;93;33884;-64
2022/02/24 01:15:29;;;;;;;127.20;52.88;;;;;;;-1.39;70.13;101047.92;1938911;91;30213;-63
2022/02/24 01:18:31;;;;;;;118.17;49.83;;;;;;;-1.41;70.23;101053.17;1900851;93;27747;-66
2022/02/24 01:21:34;;;;;;;107.15;45.60;;;;;;;-1.42;70.27;101046.16;1900677;93;29771;-65
2022/02/24 01:24:37;;;;;;;95.57;43.50;;;;;;;-1.45;70.32;101040.85;1939024;91;31151;-65
2022/02/24 01:27:42;;;;;;;104.83;43.17;;;;;;;-1.47;70.38;101041.27;1900985;93;33144;-67
2022/02/24 01:30:43;;;;;;;109.03;45.35;;;;;;;-1.47;70.58;101042.58;1939027;90;29310;-67
2022/02/24 01:33:45;;;;;;;103.60;44.27;;;;;;;-1.47;70.62;101043.02;1901408;93;27756;-65
2022/02/24 01:36:47;;;;;;;91.37;38.95;;;;;;;-1.49;70.68;101036.45;1930346;91;29474;-65
2022/02/24 01:39:49;;;;;;;86.78;37.60;;;;;;;-1.49;70.77;101028.56;1897976;93;31420;-65
2022/02/24 01:42:51;;;;;;;77.45;34.67;;;;;;;-1.49;70.73;101020.69;1897819;93;33470;-64
2022/02/24 01:45:53;;;;;;;81.95;34.65;;;;;;;-1.49;70.82;101015.42;1897889;93;29469;-65
2022/02/24 01:48:55;;;;;;;81.28;32.95;;;;;;;-1.50;70.89;101022.86;1897983;93;27729;-64
2022/02/24 01:52:01;;;;;;;79.07;30.97;;;;;;;-1.51;70.86;101016.25;1895665;92;29251;-66
2022/02/24 01:55:04;;;;;;;71.50;32.75;;;;;;;-1.53;70.87;101015.80;1895470;93;31051;-66
2022/02/24 01:58:06;;;;;;;72.78;32.38;;;;;;;-1.53;70.98;101008.37;1895410;93;33144;-62
2022/02/24 02:01:08;;;;;;;85.77;31.68;;;;;;;-1.54;71.04;101003.97;1895608;93;30138;-63
2022/02/24 02:04:10;;;;;;;68.78;29.05;;;;;;;-1.56;70.96;101003.94;1895515;93;27796;-62
2022/02/24 02:07:12;;;;;;;67.67;29.75;;;;;;;-1.56;71.15;101004.38;1912254;92;29586;-63
2022/02/24 02:10:14;;;;;;;65.47;26.27;;;;;;;-1.56;71.22;101002.63;1898064;92;32234;-63
2022/02/24 02:13:16;;;;;;;58.05;25.43;;;;;;;-1.57;71.31;101000.86;1898752;93;34121;-63
2022/02/24 02:16:18;;;;;;;59.13;24.80;;;;;;;-1.56;71.40;100996.05;1933528;92;30285;-64
2022/02/24 02:19:20;;;;;;;71.60;26.80;;;;;;;-1.54;71.41;100994.78;1933796;92;27769;-65
2022/02/24 02:22:22;;;;;;;67.12;26.62;;;;;;;-1.52;71.71;100993.05;1915080;92;29145;-64
2022/02/24 02:25:24;;;;;;;70.05;27.15;;;;;;;-1.52;71.64;100994.37;1924267;92;31981;-65
2022/02/24 02:28:26;;;;;;;78.00;30.65;;;;;;;-1.52;71.56;100985.17;1957453;91;33946;-65
2022/02/24 02:31:28;;;;;;;70.85;30.17;;;;;;;-1.52;71.59;100989.11;1924044;92;29367;-67
2022/02/24 02:34:30;;;;;;;82.00;30.97;;;;;;;-1.52;71.53;100982.55;1924198;92;27705;-65
2022/02/24 02:37:33;;;;;;;93.52;34.38;;;;;;;-1.53;71.64;100972.45;1942707;90;28694;-65
2022/02/24 02:40:37;;;;;;;87.55;34.10;;;;;;;-1.52;71.64;100977.29;1930707;92;31041;-65
2022/02/24 02:43:39;;;;;;;91.65;36.70;;;;;;;-1.54;71.47;100969.81;1930738;91;34060;-66
2022/02/24 02:46:41;;;;;;;87.75;33.75;;;;;;;-1.57;71.48;100964.52;1930547;92;29807;-65
2022/02/24 02:49:43;;;;;;;80.30;32.78;;;;;;;-1.60;71.53;100968.01;1929504;91;27788;-66
2022/02/24 02:52:44;;;;;;;87.88;36.45;;;;;;;-1.62;71.42;100964.89;1917923;92;27963;-64
2022/02/24 02:55:47;;;;;;;89.83;35.13;;;;;;;-1.65;71.46;100963.57;1919201;91;32279;-65
2022/02/24 02:58:49;;;;;;;94.72;35.60;;;;;;;-1.70;71.34;100959.14;1917746;92;33123;-65
2022/02/24 03:01:52;;;;;;;87.78;33.50;;;;;;;-1.73;71.33;100952.53;1917471;92;30519;-65
2022/02/24 03:04:54;;;;;;;86.92;31.97;;;;;;;-1.78;71.41;100946.33;1917778;92;27746;-65
2022/02/24 03:07:56;;;;;;;79.15;30.60;;;;;;;-1.81;71.54;100948.92;1937057;91;29380;-64
2022/02/24 03:10:59;;;;;;;69.32;29.57;;;;;;;-1.81;71.79;100954.62;1929060;92;32373;-66
2022/02/24 03:14:02;;;;;;;70.22;30.50;;;;;;;-1.83;71.64;100948.05;1929129;91;33619;-65
2022/02/24 03:17:08;;;;;;;76.85;31.10;;;;;;;-1.86;71.57;100946.25;1899845;91;30369;-66
2022/02/24 03:20:11;;;;;;;80.57;30.85;;;;;;;-1.89;71.58;100939.64;1897851;93;27712;-63
2022/02/24 03:23:13;;;;;;;67.75;27.25;;;;;;;-1.92;71.62;100937.42;1897758;93;29732;-63
2022/02/24 03:26:16;;;;;;;58.20;26.35;;;;;;;-1.95;71.71;100927.77;1897726;93;32265;-66
2022/02/24 03:29:17;;;;;;;68.50;27.37;;;;;;;-1.97;71.74;100920.72;1897941;93;33794;-64
2022/02/24 03:32:20;;;;;;;62.05;27.05;;;;;;;-2.00;71.63;100920.26;1898085;93;29981;-66
2022/02/24 03:35:22;;;;;;;58.38;24.32;;;;;;;-2.02;71.63;100916.31;1897892;93;27672;-67
2022/02/24 03:38:24;;;;;;;54.93;22.65;;;;;;;-2.04;71.79;100920.66;1931354;91;29419;-66
2022/02/24 03:41:26;;;;;;;48.38;21.35;;;;;;;-2.03;72.14;100912.34;1938814;91;32298;-64
2022/02/24 03:44:28;;;;;;;63.35;23.67;;;;;;;-2.00;72.53;100911.07;1901073;92;34358;-64
2022/02/24 03:47:30;;;;;;;53.25;21.80;;;;;;;-1.94;73.11;100911.16;1894498;94;29885;-64
2022/02/24 03:50:33;;;;;;;54.45;22.48;;;;;;;-1.88;72.88;100909.02;1876135;93;27747;-67
2022/02/24 03:53:35;;;;;;;58.73;24.90;;;;;;;-1.85;73.05;100905.99;1896008;93;28861;-66
2022/02/24 03:56:37;;;;;;;50.38;22.30;;;;;;;-1.81;72.98;100900.33;1928254;92;32285;-66
2022/02/24 03:59:39;;;;;;;54.77;21.10;;;;;;;-1.78;73.03;100893.80;1928727;92;33454;-67
2022/02/24 04:02:41;;;;;;;49.75;19.98;;;;;;;-1.75;73.04;100894.30;1928319;92;30530;-66
2022/02/24 04:05:43;;;;;;;44.48;19.23;;;;;;;-1.71;73.33;100886.86;1896411;93;27652;-67
2022/02/24 04:08:44;;;;;;;53.05;20.23;;;;;;;-1.67;73.33;100876.84;1914245;92;29658;-64
2022/02/24 04:11:48;;;;;;;49.53;18.92;;;;;;;-1.62;73.45;100873.84;1916056;92;31137;-66
2022/02/24 04:14:50;;;;;;;43.05;17.30;;;;;;;-1.56;73.55;100869.08;1916077;92;33086;-67
2022/02/24 04:17:52;;;;;;;41.92;16.15;;;;;;;-1.51;73.55;100867.80;1915839;92;30499;-66
2022/02/24 04:20:54;;;;;;;39.83;15.60;;;;;;;-1.47;73.65;100859.95;1915890;92;27667;-66
2022/02/24 04:23:56;;;;;;;36.98;15.63;;;;;;;-1.41;73.67;100860.46;1915939;92;28740;-66
2022/02/24 04:26:59;;;;;;;45.17;15.68;;;;;;;-1.34;73.75;100854.83;1915906;92;31639;-67
2022/02/24 04:30:01;;;;;;;43.02;14.70;;;;;;;-1.29;73.71;100846.52;1916440;92;33884;-65
2022/02/24 04:33:04;;;;;;;37.90;15.08;;;;;;;-1.25;73.64;100840.01;1915811;92;30151;-66
2022/02/24 04:36:07;;;;;;;35.95;14.83;;;;;;;-1.21;73.51;100825.12;1917236;92;27726;-67
2022/02/24 04:39:09;;;;;;;43.35;14.50;;;;;;;-1.19;73.56;100822.08;1908761;92;29516;-67
2022/02/24 04:42:11;;;;;;;35.65;15.58;;;;;;;-1.15;73.48;100814.64;1922315;92;31051;-67
2022/02/24 04:45:13;;;;;;;40.60;15.60;;;;;;;-1.12;73.54;100825.18;1890837;94;34199;-67
2022/02/24 04:48:15;;;;;;;30.45;13.00;;;;;;;-1.11;73.41;100824.31;1891096;94;29956;-67
2022/02/24 04:51:17;;;;;;;38.75;15.13;;;;;;;-1.08;73.67;100826.10;1864407;94;27719;-67
2022/02/24 04:54:19;;;;;;;37.93;16.77;;;;;;;-1.05;73.55;100815.58;1899157;93;29538;-66
2022/02/24 04:57:21;;;;;;;32.40;14.30;;;;;;;-1.02;73.48;100818.69;1878809;94;31097;-67
2022/02/24 05:00:23;;;;;;;37.10;15.05;;;;;;;-1.01;73.45;100813.42;1878891;94;34271;-66
2022/02/24 05:03:26;;;;;;;33.98;14.80;;;;;;;-1.00;73.42;100805.98;1879251;94;29543;-68
2022/02/24 05:06:28;;;;;;;38.48;14.58;;;;;;;-1.00;73.29;100798.55;1879224;93;28301;-68
2022/02/24 05:09:29;;;;;;;34.23;13.70;;;;;;;-0.99;73.26;100798.98;1878506;94;28576;-64
2022/02/24 05:12:31;;;;;;;38.13;14.75;;;;;;;-0.98;73.21;100797.67;1901281;93;31060;-68
2022/02/24 05:15:33;;;;;;;42.33;16.05;;;;;;;-0.99;73.25;100789.34;1916262;92;33526;-67
2022/02/24 05:18:35;;;;;;;33.80;14.68;;;;;;;-0.98;73.14;100785.84;1901244;93;30310;-65
2022/02/24 05:21:37;;;;;;;40.52;14.98;;;;;;;-0.99;73.18;100776.64;1915829;92;27720;-66
2022/02/24 05:24:39;;;;;;;36.25;16.57;;;;;;;-0.99;73.05;100774.01;1900949;93;30071;-66
2022/02/24 05:27:43;;;;;;;40.92;17.37;;;;;;;-1.02;73.01;100766.96;1915746;92;32306;-66
2022/02/24 05:30:45;;;;;;;37.70;16.90;;;;;;;-1.04;73.00;100762.13;1901337;93;33005;-67
2022/02/24 05:33:47;;;;;;;42.13;16.32;;;;;;;-1.07;72.97;100755.53;1916028;92;30481;-68
2022/02/24 05:36:49;;;;;;;35.58;15.60;;;;;;;-1.10;72.93;100760.34;1903559;93;28305;-66
2022/02/24 05:39:50;;;;;;;29.90;13.62;;;;;;;-1.11;72.92;100757.72;1927568;92;29276;-67
2022/02/24 05:42:52;;;;;;;42.60;14.33;;;;;;;-1.12;73.04;100764.71;1903741;93;30969;-68
2022/02/24 05:45:58;;;;;;;31.12;13.90;;;;;;;-1.12;73.06;100755.51;1903861;93;32974;-67
2022/02/24 05:49:01;;;;;;;37.30;14.35;;;;;;;-1.11;73.23;100757.72;1903852;93;29355;-65
2022/02/24 05:52:05;;;;;;;39.33;15.30;;;;;;;-1.08;73.22;100759.92;1899672;92;27840;-69
2022/02/24 05:55:08;;;;;;;38.70;16.20;;;;;;;-1.05;73.29;100748.98;1895359;93;28711;-64
2022/02/24 05:58:11;;;;;;;36.58;14.93;;;;;;;-1.02;73.22;100756.44;1916025;92;32072;-65
2022/02/24 06:01:13;;;;;;;39.38;16.23;;;;;;;-1.00;73.15;100754.70;1915859;92;34197;-67
2022/02/24 06:04:15;;;;;;;38.78;15.30;;;;;;;-0.96;73.14;100749.91;1916094;92;29768;-66
2022/02/24 06:07:18;;;;;;;36.63;15.68;;;;;;;-0.93;73.13;100750.34;1921381;92;27662;-67
2022/02/24 06:10:21;;;;;;;38.83;16.32;;;;;;;-0.90;73.07;100737.22;1928429;92;29584;-66
2022/02/24 06:13:23;;;;;;;47.90;16.25;;;;;;;-0.87;73.02;100729.77;1928397;92;31149;-68
2022/02/24 06:16:26;;;;;;;35.40;16.77;;;;;;;-0.85;73.00;100718.41;1929029;92;33895;-65
2022/02/24 06:19:28;;;;;;;49.23;15.90;;;;;;;-0.81;72.99;100716.66;1928467;92;30517;-68
2022/02/24 06:22:31;;;;;;;39.75;14.43;;;;;;;-0.77;72.96;100716.66;1928449;92;27758;-69
2022/02/24 06:25:33;;;;;;;40.38;14.75;;;;;;;-0.70;72.99;100710.12;1891056;94;29375;-67
2022/02/24 06:28:35;;;;;;;34.90;13.65;;;;;;;-0.63;73.06;100702.67;1865192;94;32263;-68
2022/02/24 06:31:37;;;;;;;37.17;14.40;;;;;;;-0.49;73.23;100700.95;1891168;93;32977;-68
2022/02/24 06:34:43;;;;;;;27.87;13.78;;;;;;;-0.29;73.22;100696.16;1861635;95;30154;-68
2022/02/24 06:37:46;;;;;;;41.25;15.03;;;;;;;-0.06;73.13;100697.95;1909244;92;28349;-68
2022/02/24 06:40:48;;;;;;;30.17;13.80;;;;;;;0.14;72.96;100690.94;1916139;92;28686;-68
2022/02/24 06:43:50;;;;;;;34.05;14.45;;;;;;;0.32;72.81;100688.28;1915821;92;32289;-66
2022/02/24 06:46:53;;;;;;;31.70;13.40;;;;;;;0.43;72.61;100682.12;1916077;92;32432;-69
2022/02/24 06:49:55;;;;;;;31.25;13.55;;;;;;;0.57;72.42;100674.61;1916063;92;29776;-68
2022/02/24 06:52:57;;;;;;;30.55;13.58;;;;;;;0.69;72.34;100676.34;1924523;91;27750;-70
2022/02/24 06:55:59;;;;;;;30.65;14.10;;;;;;;0.86;72.20;100678.91;1928699;92;29977;-70
2022/02/24 06:59:01;;;;;;;33.70;13.72;;;;;;;1.02;71.90;100666.56;1929254;92;31840;-68
2022/02/24 07:02:05;;;;;;;33.15;13.88;;;;;;;1.21;71.87;100667.34;1928677;92;33780;-70
2022/02/24 07:05:08;;;;;;;32.33;13.75;;;;;;;1.44;71.71;100672.94;1929185;92;29334;-70
2022/02/24 07:08:10;;;;;;;30.48;13.18;;;;;;;1.72;71.64;100663.08;1937017;91;27770;-69
2022/02/24 07:11:13;;;;;;;34.65;12.03;;;;;;;2.06;71.36;100663.23;1900783;93;28794;-69
2022/02/24 07:14:15;;;;;;;26.62;12.18;;;;;;;2.42;71.11;100660.69;1938746;91;31870;-70
2022/02/24 07:17:17;;;;;;;25.90;11.90;;;;;;;2.84;70.85;100641.70;1939059;91;33592;-70
2022/02/24 07:20:19;;;;;;;27.58;11.70;;;;;;;3.28;70.61;100642.02;1900943;92;30573;-70
2022/02/24 07:23:24;;;;;;;31.05;10.63;;;;;;;3.69;70.12;100633.03;1901402;93;27629;-68
2022/02/24 07:26:26;;;;;;;27.30;10.60;;;;;;;4.11;69.60;100623.06;1869046;93;29722;-69
2022/02/24 07:29:28;;;;;;;20.57;11.40;;;;;;;4.53;69.11;100624.95;1897635;93;32110;-69
2022/02/24 07:32:30;;;;;;;26.82;10.75;;;;;;;4.85;68.13;100619.44;1917813;92;32793;-68
2022/02/24 07:35:33;;;;;;;32.50;11.22;;;;;;;5.17;67.59;100620.53;1917653;92;29615;-65
2022/02/24 07:38:36;;;;;;;26.33;10.15;;;;;;;5.55;67.29;100621.45;1917809;92;27662;-65
2022/02/24 07:41:39;;;;;;;23.95;9.60;;;;;;;5.93;67.08;100611.67;1917771;92;29155;-68
2022/02/24 07:44:41;;;;;;;23.47;8.98;;;;;;;6.25;66.06;100610.90;1917810;92;31046;-67
2022/02/24 07:47:43;;;;;;;25.68;8.65;;;;;;;6.48;66.05;100594.30;1917621;92;33730;-67
2022/02/24 07:50:45;;;;;;;23.22;10.00;;;;;;;6.76;64.69;100593.50;1904147;92;30153;-69
2022/02/24 07:53:47;;;;;;;18.12;8.88;;;;;;;7.03;64.36;100585.63;1917373;92;28120;-66
2022/02/24 07:56:58;;;;;;;20.68;8.55;;;;;;;7.35;64.58;100585.09;1944072;91;28794;-70
2022/02/24 07:59:59;;;;;;;24.92;9.93;;;;;;;7.69;63.72;100586.19;1946529;90;32782;-67
2022/02/24 08:03:02;;;;;;;27.58;9.98;;;;;;;8.01;63.34;100582.04;1946772;91;33595;-69
2022/02/24 08:06:07;;;;;;;23.62;9.28;;;;;;;8.32;62.66;100585.82;1946422;91;30399;-70
2022/02/24 08:09:11;;;;;;;26.77;10.03;;;;;;;8.60;61.40;100580.86;1929438;92;27830;-68
2022/02/24 08:15:34;;;;;;;23.52;10.03;;;;;;;9.03;61.36;100582.83;1908178;93;32052;-73
2022/02/24 08:18:36;;;;;;;24.30;9.88;;;;;;;9.31;60.43;100573.27;1908357;93;34112;-68
2022/02/24 08:21:38;;;;;;;23.60;10.43;;;;;;;9.57;59.98;100578.01;1928264;92;29670;-69
2022/02/24 08:24:40;;;;;;;26.95;10.63;;;;;;;9.68;59.73;100579.77;1924136;92;28048;-71
2022/02/24 08:27:44;;;;;;;24.57;11.08;;;;;;;9.82;58.96;100569.83;1907258;93;28872;-71
2022/02/24 08:30:48;;;;;;;25.60;10.60;;;;;;;9.89;58.46;100561.08;1883070;94;31087;-70
2022/02/24 08:33:53;;;;;;;27.52;11.00;;;;;;;9.90;58.70;100557.47;1882523;94;34119;-68
2022/02/24 08:36:54;;;;;;;30.43;10.40;;;;;;;9.90;57.80;100557.47;1882976;94;30210;-69
2022/02/24 08:39:56;;;;;;;24.77;11.18;;;;;;;9.82;57.66;100554.27;1882700;94;27876;-68
2022/02/24 08:42:59;;;;;;;24.40;9.45;;;;;;;9.74;57.76;100555.92;1882208;94;29903;-69
2022/02/24 08:46:01;;;;;;;24.70;9.78;;;;;;;9.68;57.17;100552.16;1882503;94;31775;-69
2022/02/24 08:49:05;;;;;;;19.25;8.48;;;;;;;9.52;56.74;100544.77;1882416;94;33589;-67
2022/02/24 08:52:07;;;;;;;22.75;9.73;;;;;;;9.39;56.86;100544.40;1882214;92;30286;-69
2022/02/24 08:55:10;;;;;;;21.80;9.28;;;;;;;9.25;56.28;100542.30;1880190;94;27786;-67
2022/02/24 08:58:12;;;;;;;23.22;11.03;;;;;;;9.18;57.22;100534.11;1878147;94;28862;-67
2022/02/24 09:01:14;;;;;;;21.42;9.18;;;;;;;9.21;56.25;100528.66;1900087;93;31876;-66
2022/02/24 09:04:16;;;;;;;25.50;9.10;;;;;;;9.21;56.40;100521.08;1899814;93;33861;-67
2022/02/24 09:07:17;;;;;;;21.65;8.40;;;;;;;9.17;55.57;100516.81;1900134;93;29998;-66
2022/02/24 09:10:20;;;;;;;22.40;8.08;;;;;;;9.03;55.34;100515.53;1900103;93;27753;-67
2022/02/24 09:13:22;;;;;;;22.40;8.10;;;;;;;8.99;56.05;100513.06;1899977;93;29914;-66
2022/02/24 09:16:25;;;;;;;17.60;7.22;;;;;;;9.06;55.63;100515.42;1926193;92;32040;-65
2022/02/24 09:19:27;;;;;;;23.50;8.10;;;;;;;9.10;55.87;100499.67;1930466;92;32963;-67
2022/02/24 09:22:29;;;;;;;21.35;7.12;;;;;;;9.16;55.63;100505.72;1930310;91;29258;-66
2022/02/24 09:25:31;;;;;;;21.07;7.20;;;;;;;9.23;54.84;100508.53;1945147;91;27777;-66
2022/02/24 09:28:33;;;;;;;20.02;7.10;;;;;;;9.27;55.35;100488.28;1956809;91;30096;-66
2022/02/24 09:31:35;;;;;;;17.32;7.45;;;;;;;9.33;54.28;100493.87;1957036;91;31532;-66
2022/02/24 09:34:37;;;;;;;15.65;5.85;;;;;;;9.41;54.78;100483.70;1938671;91;33718;-66
2022/02/24 09:37:40;;;;;;;16.17;5.55;;;;;;;9.51;53.43;100480.66;1938761;91;30634;-67
2022/02/24 09:40:45;;;;;;;12.05;5.25;;;;;;;9.54;53.98;100478.72;1939275;91;27630;-67
2022/02/24 09:43:47;;;;;;;18.25;5.35;;;;;;;9.66;53.73;100469.31;1931087;90;28677;-68
2022/02/24 09:46:52;;;;;;;13.88;5.22;;;;;;;9.85;53.97;100459.11;1880568;94;32397;-67
2022/02/24 09:49:57;;;;;;;13.57;4.57;;;;;;;10.01;53.03;100456.64;1911376;92;33366;-68
2022/02/24 09:53:00;;;;;;;15.98;4.95;;;;;;;10.18;53.13;100451.84;1877299;94;29343;-66
2022/02/24 09:56:04;;;;;;;16.17;4.60;;;;;;;10.37;53.54;100442.97;1901370;93;27725;-67
2022/02/24 09:59:06;;;;;;;11.03;4.17;;;;;;;10.56;52.92;100446.56;1871424;94;28826;-65
2022/02/24 10:02:12;;;;;;;11.90;4.10;;;;;;;10.74;52.28;100426.08;1901228;93;31895;-67
2022/02/24 10:05:15;;;;;;;11.15;4.35;;;;;;;10.86;51.80;100419.71;1871161;94;32973;-67
2022/02/24 10:08:17;;;;;;;13.55;4.50;;;;;;;10.96;51.42;100412.09;1901679;93;29343;-67
2022/02/24 10:11:27;;;;;;;13.93;3.83;;;;;;;10.98;50.06;100406.18;1871136;95;27667;-69
2022/02/24 10:14:32;;;;;;;12.63;4.12;;;;;;;10.97;50.50;100407.13;1914685;92;28679;-67
2022/02/24 10:17:33;;;;;;;9.55;4.08;;;;;;;11.03;50.68;100398.30;1929196;92;31907;-67
2022/02/24 10:20:43;;;;;;;11.20;3.98;;;;;;;11.10;50.23;100390.81;1929106;92;33614;-68
2022/02/24 10:23:48;;;;;;;11.18;3.90;;;;;;;11.19;49.86;100384.97;1929169;92;29291;-67
2022/02/24 10:26:50;;;;;;;11.95;3.92;;;;;;;11.24;49.67;100378.91;1898176;93;27630;-69
2022/02/24 10:30:07;;;;;;;8.50;4.22;;;;;;;11.29;48.81;100367.09;1897864;93;30111;-68
2022/02/24 10:33:09;;;;;;;24.77;4.47;;;;;;;11.32;49.61;100356.20;1929124;92;31856;-69
2022/02/24 10:36:23;;;;;;;11.45;5.08;;;;;;;11.37;49.35;100341.61;1885079;93;33834;-69
2022/02/24 10:39:31;;;;;;;10.18;3.62;;;;;;;11.36;49.09;100337.19;1929046;92;29357;-68
2022/02/24 10:42:32;;;;;;;7.15;3.27;;;;;;;11.36;49.04;100334.96;1897674;93;28289;-69
2022/02/24 10:45:35;;;;;;;11.12;4.25;;;;;;;11.38;48.04;100327.25;1905370;92;30783;-69
2022/02/24 10:48:55;;;;;;;11.97;4.12;;;;;;;11.35;47.88;100320.70;1870900;94;31944;-70
2022/02/24 10:52:16;;;;;;;7.60;3.58;;;;;;;11.33;46.60;100302.47;1845815;96;33203;-70
2022/02/24 10:55:18;;;;;;;13.25;3.92;;;;;;;11.31;47.60;100301.69;1825560;96;30142;-68
2022/02/24 10:58:21;;;;;;;9.10;3.50;;;;;;;11.29;47.47;100295.53;1825406;97;27784;-69
2022/02/24 11:01:25;;;;;;;25.72;11.43;;;;;;;11.28;47.61;100301.84;1825534;97;29058;-68
2022/02/24 11:04:27;;;;;;;13.50;5.17;;;;;;;11.27;47.15;100297.42;1869646;95;31230;-67
2022/02/24 11:07:30;;;;;;;16.87;5.97;;;;;;;11.18;47.06;100290.73;1869539;95;32461;-67
2022/02/24 11:10:32;;;;;;;52.78;8.15;;;;;;;11.09;47.28;100285.86;1868882;95;30161;-67
2022/02/24 11:13:35;;;;;;;25.85;7.45;;;;;;;11.06;47.52;100277.52;1870260;95;27859;-67
2022/02/24 11:16:38;;;;;;;15.50;5.30;;;;;;;10.98;47.53;100268.98;1869352;95;29493;-68
2022/02/24 11:19:47;;;;;;;18.25;6.55;;;;;;;10.88;47.42;100259.70;1866931;95;32241;-66
2022/02/24 11:22:49;;;;;;;18.80;6.35;;;;;;;10.75;47.72;100255.44;1866539;95;34279;-67
2022/02/24 11:26:11;;;;;;;19.40;6.87;;;;;;;10.69;47.89;100245.91;1866442;95;29253;-67
2022/02/24 11:29:22;;;;;;;17.75;6.05;;;;;;;10.64;47.70;100247.48;1930671;92;27628;-67
2022/02/24 11:32:25;;;;;;;18.40;8.78;;;;;;;10.61;47.45;100244.95;1930435;91;29546;-67
2022/02/24 11:35:31;;;;;;;19.92;7.85;;;;;;;10.60;47.69;100237.86;1930597;91;31905;-66
2022/02/24 11:38:35;;;;;;;24.60;8.30;;;;;;;10.59;47.81;100241.48;1930611;92;33041;-68
2022/02/24 11:41:55;;;;;;;16.60;7.33;;;;;;;10.64;48.29;100238.11;1930595;91;29348;-67
2022/02/24 11:44:58;;;;;;;19.12;7.33;;;;;;;10.73;48.51;100231.87;1949651;91;27764;-67
2022/02/24 11:48:04;;;;;;;15.20;6.87;;;;;;;10.82;48.24;100229.19;1957451;90;30146;-68
2022/02/24 11:51:08;;;;;;;18.92;6.95;;;;;;;10.88;48.42;100221.69;1957336;91;31213;-67
2022/02/24 11:54:14;;;;;;;14.75;5.78;;;;;;;11.00;48.60;100213.48;1940387;90;32566;-68
2022/02/24 11:57:36;;;;;;;14.13;5.75;;;;;;;11.14;48.22;100210.54;1867155;94;29420;-67
2022/02/24 12:00:43;;;;;;;16.65;5.40;;;;;;;11.31;48.35;100202.94;1911038;93;27827;-66
2022/02/24 12:04:07;;;;;;;16.02;5.12;;;;;;;11.49;47.88;100205.96;1914665;92;29338;-67
2022/02/24 12:07:19;;;;;;;11.08;5.12;;;;;;;11.62;47.41;100195.88;1917078;92;30358;-68
2022/02/24 12:10:21;;;;;;;12.95;4.12;;;;;;;11.68;45.97;100180.30;1911180;92;32996;-68
2022/02/24 12:13:30;;;;;;;11.28;3.92;;;;;;;11.70;46.19;100174.38;1904286;92;30110;-69
2022/02/24 12:16:33;;;;;;;14.30;4.80;;;;;;;11.74;45.91;100165.67;1898460;93;28007;-67
2022/02/24 12:20:03;;;;;;;12.53;4.90;;;;;;;11.75;45.88;100158.00;1901970;92;30074;-69
2022/02/24 12:23:23;;;;;;;12.82;4.58;;;;;;;11.79;46.01;100154.66;1898752;93;31726;-67
2022/02/24 12:26:49;;;;;;;11.83;5.55;;;;;;;11.81;46.09;100158.13;1902188;92;32984;-66
2022/02/24 12:29:59;;;;;;;12.65;5.55;;;;;;;11.78;46.28;100136.37;1902217;93;29354;-66
2022/02/24 12:33:05;;;;;;;13.83;5.45;;;;;;;11.76;46.52;100134.70;1898857;93;27763;-66
2022/02/24 12:36:08;;;;;;;13.90;6.25;;;;;;;11.75;46.70;100123.12;1902359;93;28703;-67
2022/02/24 12:39:11;;;;;;;12.73;5.25;;;;;;;11.77;46.85;100125.70;1898686;93;30918;-67
2022/02/24 12:42:14;;;;;;;13.60;4.55;;;;;;;11.79;46.75;100117.97;1909081;92;32978;-66
2022/02/24 12:45:19;;;;;;;11.65;4.80;;;;;;;11.77;46.36;100107.80;1917322;92;30239;-69
2022/02/24 12:48:20;;;;;;;;;;;;;;;11.81;46.68;100101.30;1913519;92;27684;-67
2022/02/24 12:51:27;;;;;;;9.63;4.45;;;;;;;11.86;46.66;100099.20;1917254;92;28618;-66
2022/02/24 12:54:27;;;;;;;13.62;5.33;;;;;;;11.97;46.79;100092.35;1922273;91;31237;-66
2022/02/24 12:57:29;;;;;;;10.90;5.35;;;;;;;12.03;46.69;100097.86;1897899;93;33066;-66
2022/02/24 13:00:38;;;;;;;6.58;4.00;;;;;;;12.07;45.89;100086.84;1928682;92;30567;-65
2022/02/24 13:03:39;;;;;;;8.00;4.17;;;;;;;12.08;45.74;100083.20;1929155;92;27639;-66
2022/02/24 13:06:44;;;;;;;13.05;4.20;;;;;;;12.06;44.65;100068.16;1928780;92;29948;-67
2022/02/24 13:09:47;;;;;;;12.05;4.75;;;;;;;12.00;45.56;100067.55;1898338;93;30999;-67
2022/02/24 13:12:48;;;;;;;10.18;3.90;;;;;;;11.94;45.41;100058.48;1907546;91;33183;-67
2022/02/24 13:15:50;;;;;;;11.28;4.33;;;;;;;11.87;45.67;100059.81;1894369;93;29825;-69
2022/02/24 13:18:54;;;;;;;12.03;4.50;;;;;;;11.81;45.45;100051.66;1875400;94;27690;-68
2022/02/24 13:22:01;;;;;;;74.47;50.30;;;;;;;11.73;45.46;100056.59;1875586;94;28900;-65
2022/02/24 13:25:10;;;;;;;12.78;4.62;;;;;;;11.67;45.52;100051.56;1875699;94;31915;-65
2022/02/24 13:28:12;;;;;;;12.90;5.53;;;;;;;11.58;45.63;100040.92;1875341;94;33069;-65
2022/02/24 13:31:18;;;;;;;9.43;4.78;;;;;;;11.51;45.44;100031.48;1878300;94;30500;-70
2022/02/24 13:34:20;;;;;;;11.20;4.33;;;;;;;11.46;45.81;100030.42;1875653;94;27702;-71
2022/02/24 13:37:39;;;;;;;13.18;6.35;;;;;;;11.43;45.78;100034.61;1862314;93;29912;-68
2022/02/24 13:40:50;;;;;;;12.03;5.60;;;;;;;11.43;46.03;100032.39;1871546;93;31776;-69
2022/02/24 13:43:51;;;;;;;9.20;5.08;;;;;;;11.42;46.13;100016.79;1899601;93;33183;-68
2022/02/24 13:47:08;;;;;;;8.13;4.25;;;;;;;11.38;45.84;100008.06;1877955;94;30568;-69
2022/02/24 13:50:10;;;;;;;11.25;4.60;;;;;;;11.34;45.47;100008.30;1848763;96;27761;-67
2022/02/24 13:53:25;;;;;;;16.50;5.60;;;;;;;11.28;46.22;100006.00;1877770;94;29879;-69
2022/02/24 13:56:27;;;;;;;12.05;4.42;;;;;;;11.26;46.12;100006.06;1848747;95;31189;-73
2022/02/24 13:59:31;;;;;;;11.60;4.75;;;;;;;11.25;46.17;100001.19;1877532;94;33885;-67
2022/02/24 14:02:33;;;;;;;11.75;5.75;;;;;;;11.21;46.35;99998.78;1848660;96;30068;-66
2022/02/24 14:05:35;;;;;;;12.20;4.72;;;;;;;11.19;46.54;99994.83;1878019;94;27704;-67